Observations for SYDNEY INTL AIRPORT, Australia (YSSY)

YSSY 241500Z 36004KT CAVOK 25/21 Q1003 FM1530 19012KT 9999 FEW010 BKN090
YSSY 241430Z 01004KT CAVOK 26/21 Q1003 FM1530 19012KT 9999 FEW010 BKN090
YSSY 241400Z 02005KT CAVOK 26/22 Q1003 FM1530 19012KT 9999 FEW010 BKN090
YSSY 241330Z 04006KT CAVOK 26/21 Q1003 FM1530 19012KT 9999 FEW010 BKN090
YSSY 241300Z 05005KT CAVOK 26/21 Q1004 FM1530 19012KT 9999 FEW010 BKN090
YSSY 241230Z 03005KT CAVOK 27/22 Q1004 NOSIG
YSSY 241200Z 03008KT CAVOK 27/22 Q1004 NOSIG
YSSY 241130Z 02009KT CAVOK 28/21 Q1003 NOSIG
YSSY 241100Z 03015KT CAVOK 28/21 Q1003 NOSIG
YSSY 241030Z 03017KT CAVOK 27/21 Q1003 NOSIG
YSSY 241000Z 03019KT CAVOK 27/21 Q1003 NOSIG
YSSY 240930Z 03022KT CAVOK 27/21 Q1003 FM0900 MOD TURB BLW 5000FT TILL 1000 
YSSY 240900Z 03022KT CAVOK 27/21 Q1003 FM0900 MOD TURB BLW 5000FT TILL 1000 
YSSY 240830Z 03023KT CAVOK 27/21 Q1003 FM0830 MOD TURB BLW 5000FT TILL 1000 
YSSY 240800Z 03024KT CAVOK 28/21 Q1003 FM0800 MOD TURB BLW 5000FT TILL 1000 
YSSY 240733Z 03022G32KT CAVOK 28/21 Q1003
YSSY 240733Z 03022G32KT CAVOK 28/21 Q1003 FM0733 MOD TURB BLW 5000FT
YSSY 240730Z 03021KT CAVOK 29/21 Q1003 FM0730 MOD TURB BLW 5000FT   
YSSY 240700Z 04020KT 9999 VCSH FEW040 SCT100 29/21 Q1004 WS RWY34L WS RWY34R FM0700 MOD TURB BLW 5000FT 
YSSY 240635Z 06014KT 9999 SHRA FEW045 SCT080 BKN100 28/20 Q1004 WS RWY34L WS RWY34R
YSSY 240638Z 06015G28KT 9999 SHRA FEW004 SCT080 BKN100 28/20 Q1004 WS RWY34L WSRWY34R
YSSY 240630Z 24009KT 9999 VCTS FEW040CB SCT045 BKN080 28/20 Q1005 FM0630 04015KT 9999 -SHRA SCT050 INTER 0630/0700 5000 SHRA FEW020 BKN050 FM0630 MOD TURB BLW 5000FT   
YSSY 240600Z 04019KT 9999 VCSH SCT045 BKN080 28/21 Q1004 INTER 0600/0700 5000 SHRA FEW020 BKN050 FM0600 MOD TURB BLW 5000FT 
YSSY 240530Z 04021G31KT 9999 VCSH FEW040 SCT080 BKN120 30/21 Q1004 FM0530 03022G32KT 9999 -SHRA SCT060 FM0530 MOD TURB BLW 5000FT   
YSSY 240530Z 04021G31KT 9999 VCSH FEW040 SCT080 BKN120 30/21 Q1004
YSSY 240530Z 04021G31KT 9999 VCSH FEW040 SCT080 BKN120 30/21 Q1004 FM0530 03022G32KT 9999 -SHRA SCT060 FM0530 MOD TURB BLW 5000FT
YSSY 240500Z 04023G33KT 9999 VCSH SCT040 BKN150 30/20 Q1004 
YSSY 240500Z 04023G33KT 9999 VCSH SCT040 BKN150 30/20 Q1004
YSSY 240500Z 04023G33KT 9999 VCSH SCT040 BKN150 30/20 Q1004 FM0500 03022G32KT 9999 -SHRA SCT060 FM0500 MOD TURB BLW 5000FT
YSSY 240430Z 04022G32KT 9999 VCSH SCT040 BKN130 30/19 Q1005 FM0430 03020G30KT 9999 -SHRA SCT060 
YSSY 240430Z 04022G32KT 9999 VCSH SCT040 BKN130 30/19 Q1005
YSSY 240430Z 04022G32KT 9999 VCSH SCT040 BKN130 30/19 Q1005 FM0430 03020G30KT 9999 -SHRA SCT060
YSSY 240400Z 05019KT 9999 VCSH SCT040 BKN190 30/19 Q1005 FM0400 03018G28KT 9999 -SHRA SCT060
YSSY 240330Z 05019KT CAVOK 31/19 Q1005 FM0400 03018G28KT 9999 -SHRA SCT060  
YSSY 240300Z 04018KT CAVOK 31/19 Q1006 FM0400 03018G28KT 9999 -SHRA SCT060  
YSSY 240230Z 05018KT CAVOK 31/20 Q1006 FM0400 03018G28KT CAVOK  
YSSY 240200Z 05015KT CAVOK 31/19 Q1007 FM0400 03018G28KT CAVOK  
YSSY 240130Z 05013KT CAVOK 32/19 Q1007 NOSIG
YSSY 240100Z 04009KT CAVOK 31/19 Q1008 NOSIG
YSSY 240030Z 04007KT CAVOK 31/19 Q1008  
YSSY 240000Z 02007KT CAVOK 30/19 Q1009 NOSIG
YSSY 232330Z 36007KT CAVOK 29/19 Q1009 NOSIG
YSSY 232300Z 01008KT CAVOK 28/18 Q1009 NOSIG
YSSY 232230Z 01005KT CAVOK 27/19 Q1010 NOSIG
YSSY 232200Z 30006KT CAVOK 25/19 Q1010 NOSIG
YSSY 232130Z 32007KT CAVOK 25/19 Q1010 NOSIG
YSSY 232100Z 01006KT CAVOK 24/19 Q1010 NOSIG
YSSY 232030Z 01007KT CAVOK 23/19 Q1010  
YSSY 232000Z 02005KT CAVOK 23/19 Q1010 NOSIG
YSSY 231930Z 01007KT CAVOK 23/19 Q1010 NOSIG
YSSY 231900Z 02007KT CAVOK 22/19 Q1010 NOSIG
YSSY 231830Z 02007KT CAVOK 23/20 Q1010 NOSIG
YSSY 231800Z 03007KT CAVOK 22/19 Q1010 NOSIG
YSSY 231730Z 03006KT CAVOK 22/19 Q1010 NOSIG
YSSY 231700Z 01007KT CAVOK 23/19 Q1010 NOSIG
YSSY 231630Z 02008KT CAVOK 23/19 Q1010 NOSIG
YSSY 231600Z 03007KT CAVOK 23/19 Q1011 NOSIG
YSSY 231530Z 04007KT CAVOK 22/19 Q1011 NOSIG
YSSY 231500Z 04006KT CAVOK 24/19 Q1012 NOSIG
YSSY 231430Z 02006KT CAVOK 24/19 Q1012 NOSIG